メインページ
METAR-TAF:

METAR-TAF

空港 :

カイロ, エジプト

カイロ国際空港

緯度: 30-08N, 経度: 031-24E, 海抜: 64m

現時点の気象観測

当レポートは24分前の07:30(UTC)に作成
南西の風 7kt
気温 21°C
湿度 49%
気圧 1017 hPa
視程: 4000m
煙霧

METAR: HECA 200730Z 22007KT 4000 HZ NSC 21/10 Q1017 BECMG 6000

時間: 09:54 (07:54 UTC)

予報

当レポートは2時間54分前の05:00(UTC)に作成
予報は20日の 06時(UTC)から 21日の 12時(UTC)まで有効
変向風 3kt
視程: 6000m
20日の 06時(UTC)から 20日の 08時(UTC)まで一時的に
視程: 3000m
煙霧
20日の 08時(UTC)から 20日の 10時(UTC)まで徐々に
西/北西の風 7kt
視程10km以上
高度2500ftの雲はほとんどない
21日の 00時(UTC)から 21日の 08時(UTC)まで一時的に
変向風 3kt
視程: 6000m
21日の 00時(UTC)から 21日の 06時(UTC)まで一時的に
視程: 3000m
煙霧

TAF: HECA 200500Z 2006/2112 VRB03KT 6000 NSC TEMPO 2006/2008 3000 HZ NSC BECMG 2008/2010 30007KT 9999 FEW025 TEMPO 2100/2108 VRB03KT 6000 NSC TEMPO 2100/2106 3000 HZ

4,000以上の空港の気象観測と天気予報(METAR報とTAF報)

利用可能な観測所は地図上に黄色い丸と赤い丸で示す。

丸の上にカーソルを重ねると観測所名を参照できる。

次にクリックすると気象観測と天気予報を参照できる。

マップの切り替え:黒色「×」印の緑ボタンをクリックして拡大、「-」印の緑ボタンをクリックして縮小、緑色の三角印をクリックして隣りの地図に切り替え


METAR-TAF: